Rhodes, Mississippi
Current Conditions -  °F | °C
As of 7:53 PM on Friday 28 Nov 2014 (Local Time) from KHBG Reporting Station
Clear Clear  
Wind Chill:   Ceiling: Unl
Heat Index:   Visibility: 10mi
Dew Point:   Wind: 5mph
Humidity: 76%   Direction: 170°S
Pressure: 30.29"   Gusts: NA
Location:  31.3326°N, 88.8854°W
Report Text: KHBG 290153Z AUTO 17004KT 10SM CLR 05/01 A3029 RMK AO2 SLP257 T00500011
Loading
Personal Weather Stations






























Interactive Weather Map New forecast layout! Learn more

10-Day Weather Forecast

Advertisements
Track Severe Weather on mobile